sensor_id;sensor_type;location;lat;lon;timestamp;P1;durP1;ratioP1;P2;durP2;ratioP2
11761;SDS011;5938;47.098;15.474;2022-11-11T00:03:41;5.83;;;5.27;;
11761;SDS011;5938;47.098;15.474;2022-11-11T00:07:46;9.27;;;6.80;;
11761;SDS011;5938;47.098;15.474;2022-11-11T00:11:50;7.70;;;5.93;;
11761;SDS011;5938;47.098;15.474;2022-11-11T00:15:54;7.67;;;6.40;;
11761;SDS011;5938;47.098;15.474;2022-11-11T00:19:57;10.53;;;7.40;;
11761;SDS011;5938;47.098;15.474;2022-11-11T00:24:22;7.53;;;6.30;;
11761;SDS011;5938;47.098;15.474;2022-11-11T00:28:44;7.60;;;5.67;;
11761;SDS011;5938;47.098;15.474;2022-11-11T00:32:48;8.00;;;5.60;;
11761;SDS011;5938;47.098;15.474;2022-11-11T00:36:53;7.67;;;5.57;;
11761;SDS011;5938;47.098;15.474;2022-11-11T00:40:58;6.53;;;5.03;;
11761;SDS011;5938;47.098;15.474;2022-11-11T00:45:02;8.13;;;6.00;;
11761;SDS011;5938;47.098;15.474;2022-11-11T00:49:06;5.93;;;5.10;;
11761;SDS011;5938;47.098;15.474;2022-11-11T00:53:28;6.83;;;5.07;;
11761;SDS011;5938;47.098;15.474;2022-11-11T00:57:35;8.80;;;4.80;;
11761;SDS011;5938;47.098;15.474;2022-11-11T01:01:38;7.77;;;5.20;;
11761;SDS011;5938;47.098;15.474;2022-11-11T01:05:42;4.97;;;4.20;;
11761;SDS011;5938;47.098;15.474;2022-11-11T01:09:45;6.73;;;5.00;;
11761;SDS011;5938;47.098;15.474;2022-11-11T01:13:51;6.17;;;4.60;;
11761;SDS011;5938;47.098;15.474;2022-11-11T01:17:54;6.13;;;5.53;;
11761;SDS011;5938;47.098;15.474;2022-11-11T01:21:58;7.10;;;5.17;;
11761;SDS011;5938;47.098;15.474;2022-11-11T01:26:02;4.57;;;4.03;;
11761;SDS011;5938;47.098;15.474;2022-11-11T01:30:08;5.63;;;4.80;;
11761;SDS011;5938;47.098;15.474;2022-11-11T01:34:14;4.40;;;4.00;;
11761;SDS011;5938;47.098;15.474;2022-11-11T01:38:18;5.63;;;4.13;;
11761;SDS011;5938;47.098;15.474;2022-11-11T01:42:22;5.60;;;4.60;;
11761;SDS011;5938;47.098;15.474;2022-11-11T01:46:31;6.10;;;4.90;;
11761;SDS011;5938;47.098;15.474;2022-11-11T01:50:37;4.60;;;3.77;;
11761;SDS011;5938;47.098;15.474;2022-11-11T01:54:42;5.50;;;4.30;;
11761;SDS011;5938;47.098;15.474;2022-11-11T01:58:48;5.23;;;3.93;;
11761;SDS011;5938;47.098;15.474;2022-11-11T02:02:56;8.10;;;4.40;;
11761;SDS011;5938;47.098;15.474;2022-11-11T02:07:03;10.50;;;5.00;;
11761;SDS011;5938;47.098;15.474;2022-11-11T02:11:13;5.10;;;4.23;;
11761;SDS011;5938;47.098;15.474;2022-11-11T02:15:40;4.40;;;4.00;;
11761;SDS011;5938;47.098;15.474;2022-11-11T02:19:45;4.53;;;3.90;;
11761;SDS011;5938;47.098;15.474;2022-11-11T02:23:55;8.33;;;5.10;;
11761;SDS011;5938;47.098;15.474;2022-11-11T02:28:04;9.23;;;5.57;;
11761;SDS011;5938;47.098;15.474;2022-11-11T02:32:09;5.70;;;4.73;;
11761;SDS011;5938;47.098;15.474;2022-11-11T02:36:13;7.60;;;4.73;;
11761;SDS011;5938;47.098;15.474;2022-11-11T02:40:20;5.10;;;4.33;;
11761;SDS011;5938;47.098;15.474;2022-11-11T02:44:28;9.60;;;4.10;;
11761;SDS011;5938;47.098;15.474;2022-11-11T02:48:31;4.70;;;4.20;;
11761;SDS011;5938;47.098;15.474;2022-11-11T02:52:36;5.77;;;3.70;;
11761;SDS011;5938;47.098;15.474;2022-11-11T02:56:41;5.93;;;4.27;;
11761;SDS011;5938;47.098;15.474;2022-11-11T03:01:02;5.60;;;4.33;;
11761;SDS011;5938;47.098;15.474;2022-11-11T03:05:07;8.20;;;3.67;;
11761;SDS011;5938;47.098;15.474;2022-11-11T03:09:10;5.10;;;3.80;;
11761;SDS011;5938;47.098;15.474;2022-11-11T03:13:15;5.67;;;4.13;;
11761;SDS011;5938;47.098;15.474;2022-11-11T03:17:19;5.60;;;4.23;;
11761;SDS011;5938;47.098;15.474;2022-11-11T03:21:41;4.47;;;4.07;;
11761;SDS011;5938;47.098;15.474;2022-11-11T03:26:05;4.60;;;3.27;;
11761;SDS011;5938;47.098;15.474;2022-11-11T03:30:11;5.20;;;4.43;;
11761;SDS011;5938;47.098;15.474;2022-11-11T03:34:15;4.50;;;3.90;;
11761;SDS011;5938;47.098;15.474;2022-11-11T03:38:21;7.13;;;4.20;;
11761;SDS011;5938;47.098;15.474;2022-11-11T03:42:27;4.10;;;3.40;;
11761;SDS011;5938;47.098;15.474;2022-11-11T03:46:32;3.80;;;3.40;;
11761;SDS011;5938;47.098;15.474;2022-11-11T03:50:48;4.23;;;3.20;;
11761;SDS011;5938;47.098;15.474;2022-11-11T03:59:15;4.60;;;3.90;;
11761;SDS011;5938;47.098;15.474;2022-11-11T04:03:23;5.20;;;4.20;;
11761;SDS011;5938;47.098;15.474;2022-11-11T04:07:43;5.13;;;4.00;;
11761;SDS011;5938;47.098;15.474;2022-11-11T04:12:04;4.50;;;3.97;;
11761;SDS011;5938;47.098;15.474;2022-11-11T04:16:08;4.37;;;3.40;;
11761;SDS011;5938;47.098;15.474;2022-11-11T04:20:12;5.87;;;4.33;;
11761;SDS011;5938;47.098;15.474;2022-11-11T04:24:33;5.87;;;4.20;;
11761;SDS011;5938;47.098;15.474;2022-11-11T04:28:54;4.97;;;3.83;;
11761;SDS011;5938;47.098;15.474;2022-11-11T04:33:17;5.00;;;3.80;;
11761;SDS011;5938;47.098;15.474;2022-11-11T04:37:25;4.50;;;4.10;;
11761;SDS011;5938;47.098;15.474;2022-11-11T04:41:29;6.33;;;4.20;;
11761;SDS011;5938;47.098;15.474;2022-11-11T04:45:52;4.73;;;3.50;;
11761;SDS011;5938;47.098;15.474;2022-11-11T04:49:59;4.97;;;3.40;;
11761;SDS011;5938;47.098;15.474;2022-11-11T04:54:09;5.77;;;3.77;;
11761;SDS011;5938;47.098;15.474;2022-11-11T04:58:13;4.80;;;3.50;;
11761;SDS011;5938;47.098;15.474;2022-11-11T05:02:18;5.23;;;4.10;;
11761;SDS011;5938;47.098;15.474;2022-11-11T05:06:38;7.90;;;4.93;;
11761;SDS011;5938;47.098;15.474;2022-11-11T05:11:01;5.67;;;3.50;;
11761;SDS011;5938;47.098;15.474;2022-11-11T05:15:05;8.20;;;4.60;;
11761;SDS011;5938;47.098;15.474;2022-11-11T05:19:27;3.77;;;2.97;;
11761;SDS011;5938;47.098;15.474;2022-11-11T05:23:51;3.90;;;2.70;;
11761;SDS011;5938;47.098;15.474;2022-11-11T05:28:09;5.60;;;3.40;;
11761;SDS011;5938;47.098;15.474;2022-11-11T05:32:15;6.90;;;4.70;;
11761;SDS011;5938;47.098;15.474;2022-11-11T05:36:19;6.40;;;4.30;;
11761;SDS011;5938;47.098;15.474;2022-11-11T05:40:22;5.33;;;3.77;;
11761;SDS011;5938;47.098;15.474;2022-11-11T05:44:27;4.07;;;3.67;;
11761;SDS011;5938;47.098;15.474;2022-11-11T05:48:31;5.20;;;3.80;;
11761;SDS011;5938;47.098;15.474;2022-11-11T05:52:34;9.73;;;4.67;;
11761;SDS011;5938;47.098;15.474;2022-11-11T05:56:39;4.93;;;4.10;;
11761;SDS011;5938;47.098;15.474;2022-11-11T06:00:44;8.07;;;5.23;;
11761;SDS011;5938;47.098;15.474;2022-11-11T06:04:50;6.57;;;5.17;;
11761;SDS011;5938;47.098;15.474;2022-11-11T06:08:54;7.57;;;5.00;;
11761;SDS011;5938;47.098;15.474;2022-11-11T06:12:58;6.50;;;4.90;;
11761;SDS011;5938;47.098;15.474;2022-11-11T06:17:12;5.67;;;4.57;;
11761;SDS011;5938;47.098;15.474;2022-11-11T06:26:58;6.93;;;3.50;;
11761;SDS011;5938;47.098;15.474;2022-11-11T06:31:01;6.87;;;5.00;;
11761;SDS011;5938;47.098;15.474;2022-11-11T06:35:15;8.23;;;5.23;;
11761;SDS011;5938;47.098;15.474;2022-11-11T06:39:18;6.20;;;4.93;;
11761;SDS011;5938;47.098;15.474;2022-11-11T06:43:21;6.20;;;4.80;;
11761;SDS011;5938;47.098;15.474;2022-11-11T06:47:25;6.27;;;4.93;;
11761;SDS011;5938;47.098;15.474;2022-11-11T06:51:30;7.40;;;5.80;;
11761;SDS011;5938;47.098;15.474;2022-11-11T06:55:35;6.77;;;5.73;;
11761;SDS011;5938;47.098;15.474;2022-11-11T06:59:38;11.13;;;8.13;;
11761;SDS011;5938;47.098;15.474;2022-11-11T07:03:44;7.80;;;5.57;;
11761;SDS011;5938;47.098;15.474;2022-11-11T07:07:49;8.53;;;5.87;;
11761;SDS011;5938;47.098;15.474;2022-11-11T07:11:53;9.27;;;6.10;;
11761;SDS011;5938;47.098;15.474;2022-11-11T07:15:56;9.07;;;5.97;;
11761;SDS011;5938;47.098;15.474;2022-11-11T07:20:06;7.73;;;6.70;;
11761;SDS011;5938;47.098;15.474;2022-11-11T07:24:12;8.43;;;7.40;;
11761;SDS011;5938;47.098;15.474;2022-11-11T07:28:16;10.60;;;6.17;;
11761;SDS011;5938;47.098;15.474;2022-11-11T07:58:16;8.93;;;8.03;;
11761;SDS011;5938;47.098;15.474;2022-11-11T08:02:25;10.40;;;8.30;;
11761;SDS011;5938;47.098;15.474;2022-11-11T08:06:29;9.73;;;8.60;;
11761;SDS011;5938;47.098;15.474;2022-11-11T08:10:33;9.40;;;8.43;;
11761;SDS011;5938;47.098;15.474;2022-11-11T08:14:42;15.50;;;9.90;;
11761;SDS011;5938;47.098;15.474;2022-11-11T08:19:15;14.90;;;9.73;;
11761;SDS011;5938;47.098;15.474;2022-11-11T08:23:18;12.70;;;9.60;;
11761;SDS011;5938;47.098;15.474;2022-11-11T08:27:55;14.67;;;9.77;;
11761;SDS011;5938;47.098;15.474;2022-11-11T08:32:00;13.57;;;9.10;;
11761;SDS011;5938;47.098;15.474;2022-11-11T08:36:06;16.03;;;10.57;;
11761;SDS011;5938;47.098;15.474;2022-11-11T08:40:20;17.80;;;10.63;;
11761;SDS011;5938;47.098;15.474;2022-11-11T08:44:23;11.70;;;10.47;;
11761;SDS011;5938;47.098;15.474;2022-11-11T08:48:34;15.40;;;11.33;;
11761;SDS011;5938;47.098;15.474;2022-11-11T09:02:46;21.40;;;14.87;;
11761;SDS011;5938;47.098;15.474;2022-11-11T09:06:56;15.80;;;12.40;;
11761;SDS011;5938;47.098;15.474;2022-11-11T09:10:59;15.63;;;12.17;;
11761;SDS011;5938;47.098;15.474;2022-11-11T09:15:05;14.80;;;13.13;;
11761;SDS011;5938;47.098;15.474;2022-11-11T09:19:10;17.93;;;13.47;;
11761;SDS011;5938;47.098;15.474;2022-11-11T09:23:14;13.53;;;12.00;;
11761;SDS011;5938;47.098;15.474;2022-11-11T09:27:18;12.23;;;10.93;;
11761;SDS011;5938;47.098;15.474;2022-11-11T09:31:22;13.53;;;11.53;;
11761;SDS011;5938;47.098;15.474;2022-11-11T09:35:49;13.93;;;11.43;;
11761;SDS011;5938;47.098;15.474;2022-11-11T09:39:53;13.03;;;11.67;;
11761;SDS011;5938;47.098;15.474;2022-11-11T09:43:58;15.10;;;12.93;;
11761;SDS011;5938;47.098;15.474;2022-11-11T09:48:07;15.97;;;13.40;;
11761;SDS011;5938;47.098;15.474;2022-11-11T09:52:32;20.10;;;15.57;;
11761;SDS011;5938;47.098;15.474;2022-11-11T09:56:43;21.50;;;17.00;;
11761;SDS011;5938;47.098;15.474;2022-11-11T10:00:49;18.87;;;14.80;;
11761;SDS011;5938;47.098;15.474;2022-11-11T10:05:02;18.50;;;14.77;;
11761;SDS011;5938;47.098;15.474;2022-11-11T10:09:16;19.60;;;15.93;;
11761;SDS011;5938;47.098;15.474;2022-11-11T10:13:26;14.83;;;13.27;;
11761;SDS011;5938;47.098;15.474;2022-11-11T10:17:33;13.87;;;12.47;;
11761;SDS011;5938;47.098;15.474;2022-11-11T10:21:43;13.20;;;11.40;;
11761;SDS011;5938;47.098;15.474;2022-11-11T10:26:13;18.60;;;13.13;;
11761;SDS011;5938;47.098;15.474;2022-11-11T10:30:23;14.60;;;11.67;;
11761;SDS011;5938;47.098;15.474;2022-11-11T10:34:32;16.63;;;12.00;;
11761;SDS011;5938;47.098;15.474;2022-11-11T10:42:49;17.00;;;14.20;;
11761;SDS011;5938;47.098;15.474;2022-11-11T10:46:56;16.20;;;14.50;;
11761;SDS011;5938;47.098;15.474;2022-11-11T10:51:04;19.23;;;14.10;;
11761;SDS011;5938;47.098;15.474;2022-11-11T10:55:10;17.57;;;15.77;;
11761;SDS011;5938;47.098;15.474;2022-11-11T10:59:21;17.27;;;15.47;;
11761;SDS011;5938;47.098;15.474;2022-11-11T11:03:30;21.77;;;17.53;;
11761;SDS011;5938;47.098;15.474;2022-11-11T11:07:37;19.40;;;16.63;;
11761;SDS011;5938;47.098;15.474;2022-11-11T11:11:47;21.60;;;16.70;;
11761;SDS011;5938;47.098;15.474;2022-11-11T11:15:57;19.60;;;15.93;;
11761;SDS011;5938;47.098;15.474;2022-11-11T11:20:09;17.47;;;15.47;;
11761;SDS011;5938;47.098;15.474;2022-11-11T11:24:25;19.57;;;16.20;;
11761;SDS011;5938;47.098;15.474;2022-11-11T11:28:32;25.23;;;21.87;;
11761;SDS011;5938;47.098;15.474;2022-11-11T11:32:38;22.17;;;17.27;;
11761;SDS011;5938;47.098;15.474;2022-11-11T11:36:43;21.67;;;19.50;;
11761;SDS011;5938;47.098;15.474;2022-11-11T11:41:00;20.70;;;15.93;;
11761;SDS011;5938;47.098;15.474;2022-11-11T11:45:19;18.83;;;15.20;;
11761;SDS011;5938;47.098;15.474;2022-11-11T11:49:28;16.80;;;14.97;;
11761;SDS011;5938;47.098;15.474;2022-11-11T11:53:49;20.20;;;15.67;;
11761;SDS011;5938;47.098;15.474;2022-11-11T11:58:08;19.97;;;16.60;;
11761;SDS011;5938;47.098;15.474;2022-11-11T12:02:29;16.47;;;14.83;;
11761;SDS011;5938;47.098;15.474;2022-11-11T12:06:56;19.03;;;15.40;;
11761;SDS011;5938;47.098;15.474;2022-11-11T12:11:14;19.80;;;14.90;;
11761;SDS011;5938;47.098;15.474;2022-11-11T12:15:24;13.37;;;11.57;;
11761;SDS011;5938;47.098;15.474;2022-11-11T12:19:39;13.97;;;12.63;;
11761;SDS011;5938;47.098;15.474;2022-11-11T12:23:55;13.60;;;12.30;;
11761;SDS011;5938;47.098;15.474;2022-11-11T12:28:03;13.30;;;9.37;;
11761;SDS011;5938;47.098;15.474;2022-11-11T12:32:27;9.23;;;8.43;;
11761;SDS011;5938;47.098;15.474;2022-11-11T12:36:51;10.30;;;8.70;;
11761;SDS011;5938;47.098;15.474;2022-11-11T12:41:03;9.63;;;7.57;;
11761;SDS011;5938;47.098;15.474;2022-11-11T12:45:17;8.97;;;7.60;;
11761;SDS011;5938;47.098;15.474;2022-11-11T12:49:42;7.60;;;6.87;;
11761;SDS011;5938;47.098;15.474;2022-11-11T12:53:56;10.20;;;7.33;;
11761;SDS011;5938;47.098;15.474;2022-11-11T12:58:13;7.13;;;6.40;;
11761;SDS011;5938;47.098;15.474;2022-11-11T13:02:30;7.77;;;7.07;;
11761;SDS011;5938;47.098;15.474;2022-11-11T13:06:54;7.70;;;7.00;;
11761;SDS011;5938;47.098;15.474;2022-11-11T13:11:10;10.83;;;7.87;;
11761;SDS011;5938;47.098;15.474;2022-11-11T13:15:20;8.53;;;7.67;;
11761;SDS011;5938;47.098;15.474;2022-11-11T13:19:28;9.70;;;7.47;;
11761;SDS011;5938;47.098;15.474;2022-11-11T13:23:36;11.70;;;9.23;;
11761;SDS011;5938;47.098;15.474;2022-11-11T13:27:41;8.47;;;7.70;;
11761;SDS011;5938;47.098;15.474;2022-11-11T13:31:50;9.67;;;7.57;;
11761;SDS011;5938;47.098;15.474;2022-11-11T13:35:55;10.60;;;7.87;;
11761;SDS011;5938;47.098;15.474;2022-11-11T13:40:02;8.90;;;7.40;;
11761;SDS011;5938;47.098;15.474;2022-11-11T13:44:08;7.77;;;7.07;;
11761;SDS011;5938;47.098;15.474;2022-11-11T13:48:25;8.60;;;7.17;;
11761;SDS011;5938;47.098;15.474;2022-11-11T13:52:30;8.40;;;7.70;;
11761;SDS011;5938;47.098;15.474;2022-11-11T13:56:43;11.40;;;8.70;;
11761;SDS011;5938;47.098;15.474;2022-11-11T14:00:51;7.93;;;7.23;;
11761;SDS011;5938;47.098;15.474;2022-11-11T14:05:15;7.50;;;6.90;;
11761;SDS011;5938;47.098;15.474;2022-11-11T14:18:42;7.83;;;7.13;;
11761;SDS011;5938;47.098;15.474;2022-11-11T14:22:47;15.83;;;7.27;;
11761;SDS011;5938;47.098;15.474;2022-11-11T14:26:58;8.93;;;7.53;;
11761;SDS011;5938;47.098;15.474;2022-11-11T14:31:23;8.17;;;7.20;;
11761;SDS011;5938;47.098;15.474;2022-11-11T14:35:55;8.80;;;7.77;;
11761;SDS011;5938;47.098;15.474;2022-11-11T14:40:10;13.50;;;10.20;;
11761;SDS011;5938;47.098;15.474;2022-11-11T14:48:49;12.00;;;10.40;;
11761;SDS011;5938;47.098;15.474;2022-11-11T14:52:58;13.73;;;10.93;;
11761;SDS011;5938;47.098;15.474;2022-11-11T14:57:09;15.67;;;12.20;;
11761;SDS011;5938;47.098;15.474;2022-11-11T15:01:21;18.60;;;14.17;;
11761;SDS011;5938;47.098;15.474;2022-11-11T15:05:29;14.17;;;12.17;;
11761;SDS011;5938;47.098;15.474;2022-11-11T15:10:02;17.60;;;12.23;;
11761;SDS011;5938;47.098;15.474;2022-11-11T15:14:26;19.30;;;12.50;;
11761;SDS011;5938;47.098;15.474;2022-11-11T15:34:38;20.90;;;15.20;;
11761;SDS011;5938;47.098;15.474;2022-11-11T15:38:47;18.77;;;13.53;;
11761;SDS011;5938;47.098;15.474;2022-11-11T15:42:52;17.13;;;14.10;;
11761;SDS011;5938;47.098;15.474;2022-11-11T15:46:56;22.47;;;15.10;;
11761;SDS011;5938;47.098;15.474;2022-11-11T15:51:15;24.53;;;13.70;;
11761;SDS011;5938;47.098;15.474;2022-11-11T15:55:20;18.00;;;14.23;;
11761;SDS011;5938;47.098;15.474;2022-11-11T15:59:29;22.27;;;14.53;;
11761;SDS011;5938;47.098;15.474;2022-11-11T16:03:38;18.87;;;15.97;;
11761;SDS011;5938;47.098;15.474;2022-11-11T16:07:45;15.50;;;13.00;;
11761;SDS011;5938;47.098;15.474;2022-11-11T16:11:57;20.60;;;15.60;;
11761;SDS011;5938;47.098;15.474;2022-11-11T16:16:01;19.80;;;15.93;;
11761;SDS011;5938;47.098;15.474;2022-11-11T16:20:10;22.10;;;17.20;;
11761;SDS011;5938;47.098;15.474;2022-11-11T16:24:23;22.80;;;16.37;;
11761;SDS011;5938;47.098;15.474;2022-11-11T16:28:30;20.40;;;15.07;;
11761;SDS011;5938;47.098;15.474;2022-11-11T16:32:40;22.70;;;15.60;;
11761;SDS011;5938;47.098;15.474;2022-11-11T16:36:56;18.10;;;15.90;;
11761;SDS011;5938;47.098;15.474;2022-11-11T16:41:02;25.27;;;16.87;;
11761;SDS011;5938;47.098;15.474;2022-11-11T16:45:14;20.47;;;15.40;;
11761;SDS011;5938;47.098;15.474;2022-11-11T16:49:23;26.23;;;16.97;;
11761;SDS011;5938;47.098;15.474;2022-11-11T16:53:30;28.70;;;15.67;;
11761;SDS011;5938;47.098;15.474;2022-11-11T16:57:38;22.13;;;15.37;;
11761;SDS011;5938;47.098;15.474;2022-11-11T17:01:44;23.40;;;14.93;;
11761;SDS011;5938;47.098;15.474;2022-11-11T17:05:50;17.80;;;13.57;;
11761;SDS011;5938;47.098;15.474;2022-11-11T17:09:55;24.13;;;15.77;;
11761;SDS011;5938;47.098;15.474;2022-11-11T17:14:18;22.97;;;15.67;;
11761;SDS011;5938;47.098;15.474;2022-11-11T17:18:22;20.90;;;14.73;;
11761;SDS011;5938;47.098;15.474;2022-11-11T17:22:26;23.20;;;16.20;;
11761;SDS011;5938;47.098;15.474;2022-11-11T17:26:30;22.80;;;16.30;;
11761;SDS011;5938;47.098;15.474;2022-11-11T17:30:36;22.60;;;15.67;;
11761;SDS011;5938;47.098;15.474;2022-11-11T17:34:41;27.40;;;15.83;;
11761;SDS011;5938;47.098;15.474;2022-11-11T17:38:44;26.90;;;17.30;;
11761;SDS011;5938;47.098;15.474;2022-11-11T17:42:48;26.20;;;16.07;;
11761;SDS011;5938;47.098;15.474;2022-11-11T17:46:54;25.57;;;16.90;;
11761;SDS011;5938;47.098;15.474;2022-11-11T17:50:57;22.40;;;15.20;;
11761;SDS011;5938;47.098;15.474;2022-11-11T17:55:05;28.27;;;17.93;;
11761;SDS011;5938;47.098;15.474;2022-11-11T17:59:09;27.63;;;18.70;;
11761;SDS011;5938;47.098;15.474;2022-11-11T18:03:14;24.93;;;17.60;;
11761;SDS011;5938;47.098;15.474;2022-11-11T18:07:19;26.17;;;17.40;;
11761;SDS011;5938;47.098;15.474;2022-11-11T18:11:23;27.87;;;18.57;;
11761;SDS011;5938;47.098;15.474;2022-11-11T18:15:27;28.73;;;17.40;;
11761;SDS011;5938;47.098;15.474;2022-11-11T18:19:32;23.93;;;17.30;;
11761;SDS011;5938;47.098;15.474;2022-11-11T18:23:37;24.20;;;17.27;;
11761;SDS011;5938;47.098;15.474;2022-11-11T18:27:42;21.23;;;15.70;;
11761;SDS011;5938;47.098;15.474;2022-11-11T18:31:47;22.47;;;16.70;;
11761;SDS011;5938;47.098;15.474;2022-11-11T18:36:02;24.03;;;18.47;;
11761;SDS011;5938;47.098;15.474;2022-11-11T18:40:09;25.97;;;17.27;;
11761;SDS011;5938;47.098;15.474;2022-11-11T18:44:15;24.97;;;19.83;;
11761;SDS011;5938;47.098;15.474;2022-11-11T18:48:19;24.33;;;17.10;;
11761;SDS011;5938;47.098;15.474;2022-11-11T18:52:24;25.43;;;18.27;;
11761;SDS011;5938;47.098;15.474;2022-11-11T18:56:28;21.60;;;17.90;;
11761;SDS011;5938;47.098;15.474;2022-11-11T19:00:37;28.03;;;20.33;;
11761;SDS011;5938;47.098;15.474;2022-11-11T19:04:51;30.33;;;21.47;;
11761;SDS011;5938;47.098;15.474;2022-11-11T19:09:07;25.07;;;17.97;;
11761;SDS011;5938;47.098;15.474;2022-11-11T19:13:14;30.93;;;19.60;;
11761;SDS011;5938;47.098;15.474;2022-11-11T19:17:18;23.40;;;18.97;;
11761;SDS011;5938;47.098;15.474;2022-11-11T19:21:22;28.87;;;20.73;;
11761;SDS011;5938;47.098;15.474;2022-11-11T19:25:32;32.43;;;20.57;;
11761;SDS011;5938;47.098;15.474;2022-11-11T19:29:38;37.27;;;26.23;;
11761;SDS011;5938;47.098;15.474;2022-11-11T19:33:42;38.20;;;26.43;;
11761;SDS011;5938;47.098;15.474;2022-11-11T19:37:54;35.33;;;24.67;;
11761;SDS011;5938;47.098;15.474;2022-11-11T19:42:00;26.40;;;21.90;;
11761;SDS011;5938;47.098;15.474;2022-11-11T19:46:06;22.30;;;19.93;;
11761;SDS011;5938;47.098;15.474;2022-11-11T19:50:13;27.47;;;22.77;;
11761;SDS011;5938;47.098;15.474;2022-11-11T19:54:21;33.53;;;23.27;;
11761;SDS011;5938;47.098;15.474;2022-11-11T19:58:28;27.13;;;22.10;;
11761;SDS011;5938;47.098;15.474;2022-11-11T20:02:33;41.83;;;24.50;;
11761;SDS011;5938;47.098;15.474;2022-11-11T20:06:40;27.87;;;22.37;;
11761;SDS011;5938;47.098;15.474;2022-11-11T20:10:45;28.67;;;21.80;;
11761;SDS011;5938;47.098;15.474;2022-11-11T20:14:51;27.07;;;21.77;;
11761;SDS011;5938;47.098;15.474;2022-11-11T20:18:55;24.53;;;19.77;;
11761;SDS011;5938;47.098;15.474;2022-11-11T20:23:02;23.90;;;18.90;;
11761;SDS011;5938;47.098;15.474;2022-11-11T20:27:07;23.27;;;19.80;;
11761;SDS011;5938;47.098;15.474;2022-11-11T20:31:15;24.37;;;19.83;;
11761;SDS011;5938;47.098;15.474;2022-11-11T20:35:21;24.80;;;20.60;;
11761;SDS011;5938;47.098;15.474;2022-11-11T20:39:25;27.33;;;19.60;;
11761;SDS011;5938;47.098;15.474;2022-11-11T20:43:31;22.57;;;18.10;;
11761;SDS011;5938;47.098;15.474;2022-11-11T20:47:37;25.83;;;18.57;;
11761;SDS011;5938;47.098;15.474;2022-11-11T20:51:42;27.53;;;18.63;;
11761;SDS011;5938;47.098;15.474;2022-11-11T20:55:46;22.33;;;18.37;;
11761;SDS011;5938;47.098;15.474;2022-11-11T20:59:51;22.47;;;17.07;;
11761;SDS011;5938;47.098;15.474;2022-11-11T21:03:58;19.13;;;14.93;;
11761;SDS011;5938;47.098;15.474;2022-11-11T21:08:02;22.00;;;15.40;;
11761;SDS011;5938;47.098;15.474;2022-11-11T21:12:06;19.50;;;14.60;;
11761;SDS011;5938;47.098;15.474;2022-11-11T21:16:12;18.37;;;13.67;;
11761;SDS011;5938;47.098;15.474;2022-11-11T21:20:20;17.07;;;14.17;;
11761;SDS011;5938;47.098;15.474;2022-11-11T21:24:26;17.03;;;14.73;;
11761;SDS011;5938;47.098;15.474;2022-11-11T21:28:30;20.00;;;14.23;;
11761;SDS011;5938;47.098;15.474;2022-11-11T21:32:35;21.50;;;15.23;;
11761;SDS011;5938;47.098;15.474;2022-11-11T21:36:40;17.67;;;13.67;;
11761;SDS011;5938;47.098;15.474;2022-11-11T21:40:44;19.37;;;14.67;;
11761;SDS011;5938;47.098;15.474;2022-11-11T21:44:48;13.10;;;11.10;;
11761;SDS011;5938;47.098;15.474;2022-11-11T21:48:52;17.63;;;13.00;;
11761;SDS011;5938;47.098;15.474;2022-11-11T21:53:03;15.67;;;12.83;;
11761;SDS011;5938;47.098;15.474;2022-11-11T21:57:06;18.00;;;12.87;;
11761;SDS011;5938;47.098;15.474;2022-11-11T22:01:10;21.03;;;12.10;;
11761;SDS011;5938;47.098;15.474;2022-11-11T22:05:21;15.10;;;11.50;;
11761;SDS011;5938;47.098;15.474;2022-11-11T22:09:25;18.53;;;14.07;;
11761;SDS011;5938;47.098;15.474;2022-11-11T22:13:29;15.27;;;11.50;;
11761;SDS011;5938;47.098;15.474;2022-11-11T22:17:33;15.13;;;12.43;;
11761;SDS011;5938;47.098;15.474;2022-11-11T22:21:37;19.10;;;14.17;;
11761;SDS011;5938;47.098;15.474;2022-11-11T22:25:43;19.90;;;13.20;;
11761;SDS011;5938;47.098;15.474;2022-11-11T22:29:46;17.50;;;14.80;;
11761;SDS011;5938;47.098;15.474;2022-11-11T22:33:52;15.60;;;10.73;;
11761;SDS011;5938;47.098;15.474;2022-11-11T22:37:57;16.30;;;11.23;;
11761;SDS011;5938;47.098;15.474;2022-11-11T22:42:01;16.53;;;11.50;;
11761;SDS011;5938;47.098;15.474;2022-11-11T22:46:05;16.80;;;11.70;;
11761;SDS011;5938;47.098;15.474;2022-11-11T22:50:15;14.80;;;12.30;;
11761;SDS011;5938;47.098;15.474;2022-11-11T22:54:19;16.83;;;12.83;;
11761;SDS011;5938;47.098;15.474;2022-11-11T22:58:24;17.97;;;12.40;;
11761;SDS011;5938;47.098;15.474;2022-11-11T23:02:29;15.77;;;12.47;;
11761;SDS011;5938;47.098;15.474;2022-11-11T23:06:33;20.73;;;13.10;;
11761;SDS011;5938;47.098;15.474;2022-11-11T23:10:38;19.10;;;11.73;;
11761;SDS011;5938;47.098;15.474;2022-11-11T23:14:43;14.27;;;10.27;;
11761;SDS011;5938;47.098;15.474;2022-11-11T23:18:46;13.93;;;9.90;;
11761;SDS011;5938;47.098;15.474;2022-11-11T23:22:50;14.40;;;10.37;;
11761;SDS011;5938;47.098;15.474;2022-11-11T23:26:53;14.03;;;9.17;;
11761;SDS011;5938;47.098;15.474;2022-11-11T23:31:03;14.87;;;10.90;;
11761;SDS011;5938;47.098;15.474;2022-11-11T23:35:08;14.30;;;9.73;;
11761;SDS011;5938;47.098;15.474;2022-11-11T23:39:11;15.27;;;9.60;;
11761;SDS011;5938;47.098;15.474;2022-11-11T23:43:15;17.53;;;10.03;;
11761;SDS011;5938;47.098;15.474;2022-11-11T23:47:19;16.67;;;11.27;;
11761;SDS011;5938;47.098;15.474;2022-11-11T23:51:22;12.57;;;10.10;;
11761;SDS011;5938;47.098;15.474;2022-11-11T23:55:27;15.20;;;9.20;;
11761;SDS011;5938;47.098;15.474;2022-11-11T23:59:30;14.00;;;10.13;;
